Lobo

Go HERE for most recent data if this page is not up to date.

Jump to table bottom
Date/Time Temp deg F RH % 24 Hr Snow (in) Snow Depth (in) H2O (in)
01/23 01:00 21.3 71 0.0 41.4 0.00
01/23 00:00 20.7 81 0.2 41.6 0.00
01/22 23:00 20.4 81 0.1 41.5 0.00
01/22 22:00 20.9 81 0.2 41.6 0.00
01/22 21:00 23.5 78 0.0 41.6 0.00
01/22 20:00 24.2 76 0.3 42.0 0.00
01/22 19:00 22.0 79 0.0 41.5 0.00
01/22 18:00 21.2 79 0.0 41.5 0.00
01/22 17:00 22.6 79 0.0 41.6 0.00
01/22 16:00 24.4 74 -0.0 41.4 0.00
01/22 15:00 26.0 73 -0.0 41.5 0.00
01/22 14:00 26.3 67 -0.0 41.5 0.00
01/22 13:00 24.0 69 -0.2 41.3 0.00
01/22 12:00 20.4 78 0.0 41.8 0.00
01/22 11:00 18.1 84 0.1 42.0 0.00
01/22 10:00 16.4 88 0.2 41.8 0.00
01/22 09:00 16.0 93 0.3 41.9 0.00
01/22 08:00 15.0 87 0.2 41.7 0.00
01/22 07:00 14.2 87 0.3 41.9 0.00
01/22 06:00 14.4 87 0.4 42.0 0.00
01/22 05:00 14.6 88 0.3 42.0 0.00
01/22 04:00 14.3 88 0.4 42.0 0.00
01/22 03:00 12.9 85 0.3 41.8 0.00
01/22 02:00 11.4 87 0.3 132.5 0.00
01/22 01:00 12.0 88 0.5 42.2 0.00
01/22 00:00 11.9 87 0.4 42.3 0.00
.